Flight Track Log - Related Links

Times and Time Zones

All times are in EDT time to prevent confusion due to time zone crossing. See the N591CA flight status page for this flight to view local times or setup timezone preferences in your user account.


Time Position Orientation Groundspeed Altitude Reporting Facility
EDT Latitude Longitude Course Direction KTS MPH feet Rate Location/Type
Fri 02:53:20 PM 40.0894 -83.0525 47° Northeast 84 97 1,800  Level Indianapolis Center
Fri 02:54:08 PM 40.1031 -83.0358 43° Northeast 91 105 2,500 885 Climbing Indianapolis Center
Fri 02:54:21 PM 40.1083 -83.0308 36° Northeast 92 106 2,700 871 Climbing Indianapolis Center
Fri 02:55:10 PM 40.1222 -83.0111 47° Northeast 92 106 3,400 896 Climbing Indianapolis Center
Fri 02:55:28 PM 40.1297 -83.0042 35° Northeast 106 122 3,700 871 Climbing Indianapolis Center
Fri 02:56:12 PM 40.1444 -82.9850 45° Northeast 99 114 4,300 689 Climbing Indianapolis Center
Fri 02:56:29 PM 40.1511 -82.9775 41° Northeast 110 127 4,400 592 Climbing Indianapolis Center
Fri 02:57:23 PM 40.1753 -82.9458 45° Northeast 134 154 5,000 393 Climbing Indianapolis Center
Fri 02:58:00 PM 40.1808 -82.8060 62° Northeast  Level FlightAware Approximate
Fri 02:58:16 PM 40.1983 -82.9164 44° Northeast 136 157 5,100  Level Indianapolis Center
Fri 02:58:24 PM 40.2047 -82.8986 65° Northeast 175 201 5,000 -97 Descending Indianapolis Center
Fri 02:59:18 PM 40.2219 -82.8494 65° Northeast 161 185 5,000  Level Indianapolis Center
Fri 02:59:25 PM 40.2250 -82.8417 63° Northeast 169 194 5,000  Level Indianapolis Center
Fri 03:00:20 PM 40.2400 -82.7939 68° East 166 191 5,000  Level Indianapolis Center
Fri 03:00:26 PM 40.2425 -82.7867 66° East 165 190 5,000  Level Indianapolis Center
Fri 03:01:23 PM 40.2572 -82.7403 67° East 166 191 5,000  Level Indianapolis Center
Fri 03:01:27 PM 40.2603 -82.7319 64° Northeast 166 191 5,000 290 Level Indianapolis Center
Fri 03:02:25 PM 40.2744 -82.6856 68° East 165 190 5,300 590 Climbing Indianapolis Center
Fri 03:02:28 PM 40.2778 -82.6800 52° Northeast 153 176 5,600 871 Climbing Indianapolis Center
Fri 03:03:27 PM 40.2917 -82.6369 67° East 134 154 6,200 627 Climbing Indianapolis Center
Fri 03:03:35 PM 40.2928 -82.6303 78° East 125 144 6,300 677 Climbing Indianapolis Center
Fri 03:04:29 PM 40.3072 -82.5906 64° Northeast 133 153 6,900 362 Climbing Indianapolis Center
Fri 03:05:31 PM 40.3244 -82.5406 66° East 144 166 7,000 48 Climbing Indianapolis Center
Fri 03:06:33 PM 40.3431 -82.4772 69° East 172 198 7,000  Level Indianapolis Center
Fri 03:07:35 PM 40.3633 -82.4197 65° Northeast 174 200 7,000  Level Indianapolis Center
Fri 03:08:37 PM 40.3825 -82.3597 67° East 174 200 7,000  Level Indianapolis Center
Fri 03:09:39 PM 40.4064 -82.2906 66° East 175 201 7,000  Level Indianapolis Center
Fri 03:10:41 PM 40.4231 -82.2311 70° East 175 201 7,000  Level Indianapolis Center
Fri 03:11:43 PM 40.4436 -82.1775 63° Northeast 169 194 7,000  Level Indianapolis Center
Fri 03:12:45 PM 40.4608 -82.1178 69° East 169 194 7,000 48 Level Indianapolis Center
Fri 03:13:48 PM 40.4975 -82.0819 37° Northeast 167 192 7,100 48 Climbing Indianapolis Center
Fri 03:14:50 PM 40.5358 -82.0561 27° Northeast 158 182 7,100  Level Indianapolis Center
Fri 03:15:52 PM 40.5747 -82.0339 23° Northeast 156 180 7,100 -290 Level Indianapolis Center
Fri 03:16:54 PM 40.6228 -82.0108 20° North 155 178 6,500 -629 Descending Indianapolis Center
Fri 03:17:56 PM 40.6664 -81.9878 22° Northeast 164 189 5,800 -667 Descending Indianapolis Center
Fri 03:19:00 PM 40.7081 -81.9669 21° North 165 190 5,100 -583 Descending Cleveland Center
Fri 03:19:08 PM 40.7147 -81.9647 14° North 159 183 5,100  Level Cleveland Center
Fri 03:19:50 PM 40.7414 -81.9497 23° Northeast 153 176 5,100  Level Cleveland Center
Fri 03:20:02 PM 40.7467 -81.9450 34° Northeast 154 177 5,100  Level Cleveland Center
Fri 03:20:51 PM 40.7792 -81.9256 24° Northeast 141 162 5,100  Level Cleveland Center
Fri 03:21:04 PM 40.7828 -81.9247 10° North 144 166 5,100  Level Cleveland Center
Fri 03:21:52 PM 40.8167 -81.9067 22° Northeast 140 161 5,100  Level Cleveland Center
Fri 03:22:07 PM 40.8203 -81.9050 19° North 143 165 5,100  Level Cleveland Center
Fri 03:22:52 PM 40.8522 -81.8875 23° Northeast 141 162 5,100  Level Cleveland Center
Fri 03:23:09 PM 40.8617 -81.8817 25° Northeast 142 163 5,100 -90 Level Cleveland Center
Fri 03:23:59 PM 40.8900 -81.8658 23° Northeast 140 161 5,000 -97 Descending Cleveland Center
Fri 03:24:11 PM 40.8983 -81.8617 21° North 141 162 5,000  Level Cleveland Center
Fri 03:24:59 PM 40.9275 -81.8444 24° Northeast 141 162 5,000  Level Cleveland Center
Fri 03:25:13 PM 40.9353 -81.8417 15° North 141 162 5,000 -492 Level Cleveland Center
Fri 03:26:00 PM 40.9631 -81.8253 24° Northeast 144 166 4,500 -581 Descending Cleveland Center
Fri 03:26:15 PM 40.9731 -81.8203 21° North 142 163 4,400 -787 Descending Cleveland Center
Fri 03:27:01 PM 41.0094 -81.7994 23° Northeast 173 199 3,700 -774 Descending Cleveland Center
Fri 03:27:17 PM 41.0147 -81.7956 29° Northeast 153 176 3,600 -700 Descending Cleveland Center
Fri 03:28:01 PM 41.0492 -81.7781 21° North 170 196 3,000 -581 Descending Cleveland Center
Fri 03:28:19 PM 41.0564 -81.7719 33° Northeast 157 181 3,000  Level Cleveland Center
Fri 03:29:02 PM 41.0869 -81.7564 21° North 147 169 3,000  Level Cleveland Center
Fri 03:29:21 PM 41.1008 -81.7469 27° Northeast 155 178 3,000  Level Cleveland Center
Fri 03:30:03 PM 41.1247 -81.7347 21° North 145 167 3,000  Level Cleveland Center
Fri 03:30:24 PM 41.1383 -81.7264 25° Northeast 150 173 3,000  Level Cleveland Center
Fri 03:31:03 PM 41.1622 -81.7131 23° Northeast 150 173 3,000  Level Cleveland Center
Fri 03:31:26 PM 41.1772 -81.7053 21° North 150 173 3,000  Level Cleveland Center
Fri 03:32:04 PM 41.1997 -81.6939 21° North 146 168 3,000  Level Cleveland Center
Fri 03:32:28 PM 41.2142 -81.6844 26° Northeast 149 171 3,000  Level Cleveland Center
Fri 03:32:58 PM 41.2333 -81.6717 27° Northeast 144 166 3,000 97 Level Cleveland Center
Fri 03:33:30 PM 41.2481 -81.6572 36° Northeast 148 170 3,100  Climbing Cleveland Center
Fri 03:34:05 PM 41.2683 -81.6325 42° Northeast 143 165 3,000 -97 Descending Cleveland Center
Fri 03:34:32 PM 41.2781 -81.6225 38° Northeast 146 168 3,000  Level Cleveland Center
Fri 03:35:00 PM 41.2942 -81.6033 42° Northeast 143 165 3,000  Level Cleveland Center
Fri 03:35:34 PM 41.3133 -81.5833 38° Northeast 146 168 3,000  Level Cleveland Center
Fri 03:36:00 PM 41.3267 -81.5667 43° Northeast 142 163 3,000 97 Level Cleveland Center
Fri 03:36:36 PM 41.3442 -81.5503 35° Northeast 146 168 3,100  Climbing Cleveland Center
Fri 03:37:01 PM 41.3589 -81.5356 37° Northeast 145 167 3,000 -97 Descending Cleveland Center
Fri 03:37:38 PM 41.3758 -81.5186 37° Northeast 145 167 3,000 90 Level Cleveland Center
Fri 03:38:08 PM 41.3950 -81.5078 23° Northeast 142 163 3,100  Climbing Cleveland Center
Fri 03:38:41 PM 41.4133 -81.5061 North 142 163 3,000 -111 Descending Cleveland Center
Fri 03:39:02 PM 41.4333 -81.5028 North 149 171 3,000 -290 Level Cleveland Center
Fri 03:39:43 PM 41.4553 -81.4994 North 144 166 2,700 -393 Descending Cleveland Center
Fri 03:40:03 PM 41.4758 -81.4956 North 159 183 2,600 -387 Descending Cleveland Center
Fri 03:40:45 PM 41.5058 -81.4900 North 152 175 2,300 -358 Descending Cleveland Center
Fri 03:41:10 PM 41.5186 -81.4883 North 146 168 2,200 -290 Descending Cleveland Center
Fri 03:41:47 PM 41.5436 -81.4833 North 146 168 2,000 -222 Descending Cleveland Center
Fri 03:42:04 PM 41.5492 -81.4736 53° Northeast 126 145 2,000  Level Cleveland Center
Fri 03:42:49 PM 41.5650 -81.4550 41° Northeast 120 138 2,000 -197 Level Cleveland Center
Fri 03:43:05 PM 41.5714 -81.4603 328° Northwest 95 109 1,800 -774 Descending Cleveland Center
Fri 03:43:51 PM 41.5678 -81.4850 259° West 104 120 1,200 -700 Descending Cleveland Center
Fri 03:44:05 PM 41.5669 -81.4875 246° West 87 100 1,100 -429 Descending Cleveland Center
Fri 03:46:00 PM 41.5651 -81.4864 270° West  Level Estimated

Login

Don't have an account? Register now (free) for customized features, flight alerts, and more!